createdAt,value
2023-05-15T00:01:03.319Z,4.68
2023-05-15T00:03:31.653Z,6.28
2023-05-15T00:05:59.854Z,6.93
2023-05-15T00:08:27.895Z,20.15
2023-05-15T00:11:01.727Z,8.20
2023-05-15T00:13:31.682Z,3.95
2023-05-15T00:15:59.798Z,7.18
2023-05-15T00:18:27.985Z,8.65
2023-05-15T00:20:56.085Z,6.43
2023-05-15T00:23:24.161Z,5.75
2023-05-15T00:25:52.230Z,4.82
2023-05-15T00:28:20.238Z,6.05
2023-05-15T00:30:49.692Z,12.50
2023-05-15T00:33:17.709Z,7.75
2023-05-15T00:35:46.189Z,4.38
2023-05-15T00:38:14.205Z,5.93
2023-05-15T00:40:42.480Z,3.85
2023-05-15T00:43:10.864Z,5.93
2023-05-15T00:45:39.139Z,4.13
2023-05-15T00:48:08.799Z,7.90
2023-05-15T00:50:36.841Z,3.60
2023-05-15T00:53:05.018Z,4.70
2023-05-15T00:55:33.265Z,5.18
2023-05-15T00:58:01.401Z,10.95
2023-05-15T01:00:29.430Z,4.03
2023-05-15T01:02:57.678Z,6.53
2023-05-15T01:05:27.405Z,6.78
2023-05-15T01:07:58.749Z,6.95
2023-05-15T01:10:26.753Z,6.65
2023-05-15T01:12:55.389Z,4.75
2023-05-15T01:15:24.204Z,4.75
2023-05-15T01:17:52.798Z,8.25
2023-05-15T01:20:21.147Z,7.22
2023-05-15T01:22:54.925Z,4.13
2023-05-15T01:25:47.366Z,4.72
2023-05-15T01:28:19.250Z,4.55
2023-05-15T01:30:47.313Z,4.27
2023-05-15T01:33:19.294Z,6.80
2023-05-15T01:35:50.317Z,5.57
2023-05-15T01:38:20.793Z,5.82
2023-05-15T01:40:49.235Z,5.20
2023-05-15T01:43:20.443Z,4.25
2023-05-15T01:45:48.505Z,3.45
2023-05-15T01:48:16.574Z,3.28
2023-05-15T01:50:44.886Z,3.33
2023-05-15T01:53:12.943Z,3.67
2023-05-15T01:55:41.305Z,5.57
2023-05-15T01:58:09.354Z,4.68
2023-05-15T02:00:38.809Z,3.75
2023-05-15T02:03:07.118Z,8.30
2023-05-15T02:05:35.199Z,5.30
2023-05-15T02:08:03.704Z,6.68
2023-05-15T02:10:31.849Z,7.15
2023-05-15T02:12:59.916Z,4.65
2023-05-15T02:15:28.160Z,9.65
2023-05-15T02:17:57.651Z,5.63
2023-05-15T02:20:25.703Z,7.55
2023-05-15T02:22:53.737Z,4.82
2023-05-15T02:25:21.820Z,9.35
2023-05-15T02:27:58.881Z,5.10
2023-05-15T02:30:34.263Z,5.55
2023-05-15T02:33:08.835Z,5.07
2023-05-15T02:35:39.070Z,4.18
2023-05-15T02:38:10.381Z,6.40
2023-05-15T02:40:38.550Z,6.78
2023-05-15T02:43:06.687Z,5.80
2023-05-15T02:45:34.738Z,9.25
2023-05-15T02:48:04.484Z,6.63
2023-05-15T02:50:32.555Z,6.65
2023-05-15T02:53:04.362Z,5.55
2023-05-15T02:55:32.480Z,4.53
2023-05-15T02:58:00.489Z,5.63
2023-05-15T03:00:28.577Z,5.57
2023-05-15T03:02:56.699Z,4.93
2023-05-15T03:05:26.656Z,8.20
2023-05-15T03:07:55.036Z,7.03
2023-05-15T03:10:24.247Z,7.70
2023-05-15T03:12:52.321Z,6.30
2023-05-15T03:15:20.393Z,6.22
2023-05-15T03:17:48.549Z,8.32
2023-05-15T03:20:16.703Z,6.07
2023-05-15T03:22:46.132Z,6.15
2023-05-15T03:25:14.253Z,6.03
2023-05-15T03:27:42.302Z,6.28
2023-05-15T03:30:11.369Z,6.28
2023-05-15T03:32:39.501Z,12.43
2023-05-15T03:35:08.041Z,5.00
2023-05-15T03:37:36.091Z,4.75
2023-05-15T03:40:07.499Z,9.13
2023-05-15T03:42:35.616Z,17.63
2023-05-15T03:45:03.917Z,7.00
2023-05-15T03:47:32.028Z,8.10
2023-05-15T03:50:00.076Z,11.13
2023-05-15T03:52:28.202Z,6.60
2023-05-15T03:54:56.262Z,9.23
2023-05-15T03:57:25.679Z,8.52
2023-05-15T03:59:53.712Z,10.68
2023-05-15T04:02:21.886Z,7.25
2023-05-15T04:04:50.116Z,5.95
2023-05-15T04:07:18.172Z,7.35
2023-05-15T04:09:46.455Z,8.40
2023-05-15T04:12:14.508Z,10.27
2023-05-15T04:14:43.923Z,13.90
2023-05-15T04:17:11.957Z,12.07
2023-05-15T04:19:41.177Z,13.02
2023-05-15T04:22:11.140Z,10.85
2023-05-15T04:24:39.271Z,9.07
2023-05-15T04:27:07.722Z,11.10
2023-05-15T04:29:35.921Z,9.77
2023-05-15T04:32:05.957Z,10.02
2023-05-15T04:34:34.019Z,9.77
2023-05-15T04:37:02.112Z,12.15
2023-05-15T04:39:30.135Z,12.80
2023-05-15T04:41:58.178Z,13.85
2023-05-15T04:44:26.601Z,10.88
2023-05-15T04:46:54.851Z,9.07
2023-05-15T04:49:24.302Z,12.73
2023-05-15T04:51:52.471Z,11.65
2023-05-15T04:54:21.011Z,9.20
2023-05-15T04:56:49.141Z,11.02
2023-05-15T04:59:18.168Z,12.02
2023-05-15T05:01:46.616Z,10.60
2023-05-15T05:04:15.245Z,13.40
2023-05-15T05:06:44.736Z,11.40
2023-05-15T05:09:12.802Z,11.88
2023-05-15T05:11:43.658Z,12.10
2023-05-15T05:14:11.739Z,13.70
2023-05-15T05:16:39.879Z,12.48
2023-05-15T05:19:08.066Z,16.70
2023-05-15T05:21:36.135Z,12.90
2023-05-15T05:24:05.994Z,11.57
2023-05-15T05:26:34.026Z,11.50
2023-05-15T05:29:02.195Z,13.10
2023-05-15T05:31:30.372Z,15.48
2023-05-15T05:33:58.547Z,14.05
2023-05-15T05:36:26.673Z,17.33
2023-05-15T05:38:54.842Z,12.15
2023-05-15T05:41:24.302Z,14.75
2023-05-15T05:43:52.383Z,13.05
2023-05-15T05:46:21.165Z,13.77
2023-05-15T05:48:49.349Z,12.23
2023-05-15T05:51:17.647Z,13.75
2023-05-15T05:53:45.726Z,12.75
2023-05-15T05:56:13.870Z,13.60
2023-05-15T05:58:43.296Z,13.20
2023-05-15T06:01:11.415Z,12.15
2023-05-15T06:03:40.074Z,12.30
2023-05-15T06:06:08.853Z,12.85
2023-05-15T06:08:36.885Z,10.50
2023-05-15T06:11:05.444Z,10.35
2023-05-15T06:13:33.706Z,11.05
2023-05-15T06:16:03.189Z,8.98
2023-05-15T06:18:31.248Z,10.93
2023-05-15T06:21:00.409Z,11.40
2023-05-15T06:23:28.549Z,8.45
2023-05-15T06:25:56.758Z,7.55
2023-05-15T06:28:24.924Z,11.05
2023-05-15T06:30:53.017Z,12.82
2023-05-15T06:33:22.907Z,11.68
2023-05-15T06:35:50.985Z,8.43
2023-05-15T06:38:19.045Z,9.02
2023-05-15T06:40:47.297Z,10.48
2023-05-15T06:43:15.410Z,10.02
2023-05-15T06:45:43.443Z,8.40
2023-05-15T06:48:11.988Z,10.45
2023-05-15T06:50:44.941Z,10.95
2023-05-15T06:53:21.340Z,8.23
2023-05-15T06:55:49.650Z,8.10
2023-05-15T06:58:18.544Z,8.35
2023-05-15T07:00:46.932Z,5.75
2023-05-15T07:03:19.989Z,7.00
2023-05-15T07:05:51.449Z,8.45
2023-05-15T07:08:22.355Z,7.05
2023-05-15T07:11:11.060Z,12.52
2023-05-15T07:13:40.046Z,10.30
2023-05-15T07:16:25.239Z,10.98
2023-05-15T07:18:59.307Z,9.93
2023-05-15T07:21:38.003Z,8.57
2023-05-15T07:24:22.357Z,7.60
2023-05-15T07:27:01.227Z,9.20
2023-05-15T07:29:40.232Z,8.35
2023-05-15T07:32:18.386Z,5.57
2023-05-15T07:34:52.369Z,12.73
2023-05-15T07:37:26.280Z,5.57
2023-05-15T07:39:57.672Z,6.63
2023-05-15T07:42:26.575Z,12.95
2023-05-15T07:44:57.430Z,8.70
2023-05-15T07:47:25.588Z,5.50
2023-05-15T07:49:53.995Z,7.00
2023-05-15T07:52:23.629Z,8.65
2023-05-15T07:54:51.670Z,5.90
2023-05-15T07:57:19.901Z,9.77
2023-05-15T07:59:48.166Z,5.57
2023-05-15T08:02:16.243Z,5.65
2023-05-15T08:04:44.437Z,6.20
2023-05-15T08:07:14.597Z,7.00
2023-05-15T08:09:44.019Z,5.75
2023-05-15T08:12:21.872Z,11.45
2023-05-15T08:14:50.817Z,5.35
2023-05-15T08:17:19.351Z,6.13
2023-05-15T08:19:47.536Z,6.00
2023-05-15T08:22:15.663Z,6.28
2023-05-15T08:24:45.358Z,5.00
2023-05-15T08:27:13.505Z,4.68
2023-05-15T08:29:41.594Z,7.55
2023-05-15T08:32:10.269Z,4.60
2023-05-15T08:34:38.840Z,4.60
2023-05-15T08:37:07.459Z,4.38
2023-05-15T08:39:35.611Z,5.90
2023-05-15T08:42:09.373Z,5.90
2023-05-15T08:44:37.747Z,3.35
2023-05-15T08:47:07.192Z,6.30
2023-05-15T08:49:38.396Z,7.03
2023-05-15T08:52:06.927Z,5.85
2023-05-15T08:54:35.057Z,4.68
2023-05-15T08:57:03.458Z,4.50
2023-05-15T08:59:33.098Z,7.35
2023-05-15T09:02:01.582Z,5.22
2023-05-15T09:04:29.874Z,4.13
2023-05-15T09:06:58.418Z,35.28
2023-05-15T09:09:26.538Z,5.72
2023-05-15T09:11:54.628Z,11.40
2023-05-15T09:14:22.646Z,5.03
2023-05-15T09:16:53.614Z,4.57
2023-05-15T09:19:22.548Z,5.22
2023-05-15T09:21:50.788Z,7.05
2023-05-15T09:24:21.599Z,11.05
2023-05-15T09:27:04.664Z,8.27
2023-05-15T09:29:33.457Z,4.93
2023-05-15T09:32:05.485Z,4.25
2023-05-15T09:34:34.261Z,5.65
2023-05-15T09:37:03.320Z,4.78
2023-05-15T09:39:31.566Z,6.90
2023-05-15T09:42:07.627Z,5.57
2023-05-15T09:44:35.755Z,6.93
2023-05-15T09:47:06.324Z,7.63
2023-05-15T09:49:34.609Z,8.73
2023-05-15T09:52:02.894Z,9.55
2023-05-15T09:54:31.725Z,4.53
2023-05-15T09:57:08.113Z,7.30
2023-05-15T09:59:36.236Z,10.27
2023-05-15T10:02:06.462Z,7.20
2023-05-15T10:04:37.596Z,4.88
2023-05-15T10:07:07.852Z,5.85
2023-05-15T10:09:36.049Z,9.45
2023-05-15T10:12:04.258Z,5.00
2023-05-15T10:14:32.501Z,4.07
2023-05-15T10:17:01.008Z,6.82
2023-05-15T10:19:30.480Z,4.95
2023-05-15T10:21:58.607Z,5.35
2023-05-15T10:24:27.263Z,5.50
2023-05-15T10:26:55.697Z,4.90
2023-05-15T10:29:25.399Z,6.57
2023-05-15T10:31:53.610Z,5.32
2023-05-15T10:34:21.820Z,6.18
2023-05-15T10:36:51.502Z,7.57
2023-05-15T10:39:19.604Z,5.38
2023-05-15T10:41:47.651Z,8.65
2023-05-15T10:44:15.699Z,5.57
2023-05-15T10:46:43.780Z,6.03
2023-05-15T10:49:11.822Z,9.70
2023-05-15T10:51:58.836Z,5.68
2023-05-15T10:54:29.918Z,5.72
2023-05-15T10:56:58.211Z,6.47
2023-05-15T10:59:32.226Z,6.22
2023-05-15T11:02:23.587Z,8.25
2023-05-15T11:04:56.742Z,6.18
2023-05-15T11:07:25.798Z,5.28
2023-05-15T11:09:58.798Z,8.10
2023-05-15T11:12:27.079Z,7.47
2023-05-15T11:15:20.574Z,4.07
2023-05-15T11:18:03.829Z,7.00
2023-05-15T11:20:37.071Z,5.28
2023-05-15T11:23:05.499Z,7.18
2023-05-15T11:25:36.058Z,8.82
2023-05-15T11:28:04.643Z,4.28
2023-05-15T11:30:36.822Z,12.18
2023-05-15T11:33:08.856Z,9.63
2023-05-15T11:35:38.806Z,8.52
2023-05-15T11:38:12.300Z,8.77
2023-05-15T11:40:48.690Z,8.77
2023-05-15T11:43:20.985Z,9.93
2023-05-15T11:45:51.551Z,8.65
2023-05-15T11:48:19.788Z,5.93
2023-05-15T11:50:48.060Z,9.85
2023-05-15T11:53:16.305Z,6.40
2023-05-15T11:55:44.917Z,6.82
2023-05-15T11:58:15.334Z,5.82
2023-05-15T12:00:43.630Z,11.65
2023-05-15T12:03:16.802Z,11.90
2023-05-15T12:05:57.375Z,10.45
2023-05-15T12:08:26.145Z,14.45
2023-05-15T12:10:54.273Z,7.20
2023-05-15T12:13:23.886Z,7.93
2023-05-15T12:15:51.904Z,7.70
2023-05-15T12:18:19.990Z,9.80
2023-05-15T12:20:49.753Z,12.90
2023-05-15T12:23:18.304Z,8.57
2023-05-15T12:25:46.784Z,6.97
2023-05-15T12:28:14.966Z,11.25
2023-05-15T12:30:44.803Z,8.10
2023-05-15T12:33:12.944Z,12.10
2023-05-15T12:35:43.364Z,12.35
2023-05-15T12:38:15.457Z,13.18
2023-05-15T12:40:44.426Z,14.48
2023-05-15T12:43:12.630Z,11.18
2023-05-15T12:45:41.091Z,11.10
2023-05-15T12:48:15.518Z,11.23
2023-05-15T12:50:45.615Z,14.77
2023-05-15T12:53:14.581Z,15.00
2023-05-15T12:55:42.834Z,10.50
2023-05-15T12:58:12.517Z,13.88
2023-05-15T13:00:42.085Z,10.98
2023-05-15T13:03:12.184Z,12.50
2023-05-15T13:05:41.016Z,10.15
2023-05-15T13:08:09.108Z,10.50
2023-05-15T13:10:38.056Z,11.25
2023-05-15T13:13:06.157Z,7.38
2023-05-15T13:15:36.504Z,11.38
2023-05-15T13:18:05.301Z,8.57
2023-05-15T13:20:35.894Z,7.68
2023-05-15T13:23:04.091Z,10.60
2023-05-15T13:25:32.335Z,7.28
2023-05-15T13:28:01.528Z,8.60
2023-05-15T13:30:29.662Z,10.90
2023-05-15T13:32:57.858Z,8.30
2023-05-15T13:35:25.899Z,6.90
2023-05-15T13:37:56.468Z,7.53
2023-05-15T13:40:24.832Z,8.77
2023-05-15T13:42:53.140Z,9.35
2023-05-15T13:45:21.247Z,7.10
2023-05-15T13:47:49.380Z,8.55
2023-05-15T13:50:17.795Z,8.75
2023-05-15T13:52:46.278Z,8.15
2023-05-15T13:55:15.768Z,11.20
2023-05-15T13:57:44.193Z,10.95
2023-05-15T14:00:13.634Z,8.65
2023-05-15T14:02:43.145Z,11.23
2023-05-15T14:05:11.790Z,10.90
2023-05-15T14:07:39.936Z,12.77
2023-05-15T14:10:09.043Z,12.38
2023-05-15T14:12:38.895Z,10.30
2023-05-15T14:15:07.907Z,11.20
2023-05-15T14:17:36.231Z,10.15
2023-05-15T14:20:04.989Z,7.75
2023-05-15T14:22:33.199Z,7.80
2023-05-15T14:25:02.754Z,9.60
2023-05-15T14:27:30.834Z,8.00
2023-05-15T14:30:01.662Z,10.93
2023-05-15T14:32:29.956Z,9.45
2023-05-15T14:35:00.020Z,7.60
2023-05-15T14:37:28.549Z,8.75
2023-05-15T14:39:56.593Z,8.07
2023-05-15T14:42:24.648Z,8.85
2023-05-15T14:44:52.701Z,12.45
2023-05-15T14:47:22.194Z,10.60
2023-05-15T14:49:50.259Z,8.40
2023-05-15T14:52:18.295Z,7.95
2023-05-15T14:54:53.825Z,6.90
2023-05-15T14:57:29.121Z,8.40
2023-05-15T14:59:57.328Z,7.55
2023-05-15T15:02:26.916Z,9.15
2023-05-15T15:04:55.096Z,7.80
2023-05-15T15:07:23.130Z,6.47
2023-05-15T15:09:51.208Z,9.05
2023-05-15T15:12:19.238Z,10.32
2023-05-15T15:14:47.333Z,8.35
2023-05-15T15:17:15.345Z,8.82
2023-05-15T15:19:44.778Z,9.85
2023-05-15T15:22:12.806Z,10.95
2023-05-15T15:24:40.886Z,7.25
2023-05-15T15:27:08.949Z,10.07
2023-05-15T15:29:36.972Z,10.02
2023-05-15T15:32:05.477Z,10.00
2023-05-15T15:34:33.614Z,5.28
2023-05-15T15:37:03.072Z,5.72
2023-05-15T15:39:31.244Z,8.20
2023-05-15T15:41:59.484Z,7.65
2023-05-15T15:44:27.540Z,5.90
2023-05-15T15:46:55.583Z,4.03
2023-05-15T15:49:23.691Z,6.95
2023-05-15T15:51:51.860Z,6.88
2023-05-15T15:54:22.676Z,5.60
2023-05-15T15:56:50.796Z,13.90
2023-05-15T15:59:18.905Z,5.88
2023-05-15T16:01:47.470Z,7.68
2023-05-15T16:04:15.625Z,6.60
2023-05-15T16:06:43.713Z,7.78
2023-05-15T16:09:11.967Z,13.00
2023-05-15T16:11:41.892Z,9.63
2023-05-15T16:14:10.055Z,6.88
2023-05-15T16:16:38.311Z,9.75
2023-05-15T16:19:06.511Z,6.55
2023-05-15T16:21:36.396Z,7.20
2023-05-15T16:24:04.618Z,7.57
2023-05-15T16:26:32.784Z,6.93
2023-05-15T16:29:02.216Z,7.38
2023-05-15T16:31:30.514Z,9.57
2023-05-15T16:34:00.348Z,6.45
2023-05-15T16:36:30.218Z,7.00
2023-05-15T16:38:58.387Z,7.93
2023-05-15T16:41:26.513Z,5.20
2023-05-15T16:43:54.862Z,9.13
2023-05-15T16:46:24.409Z,10.48
2023-05-15T16:48:52.589Z,6.97
2023-05-15T16:51:21.571Z,7.85
2023-05-15T16:53:50.773Z,9.35
2023-05-15T16:56:18.885Z,7.72
2023-05-15T16:58:46.969Z,7.65
2023-05-15T17:01:15.247Z,8.93
2023-05-15T17:03:44.828Z,7.63
2023-05-15T17:06:12.977Z,5.88
2023-05-15T17:08:42.690Z,11.00
2023-05-15T17:11:11.546Z,6.90
2023-05-15T17:13:39.634Z,5.93
2023-05-15T17:16:08.777Z,5.80
2023-05-15T17:18:37.074Z,8.02
2023-05-15T17:21:06.737Z,9.13
2023-05-15T17:23:34.856Z,7.38
2023-05-15T17:26:04.315Z,7.43
2023-05-15T17:28:32.722Z,15.63
2023-05-15T17:31:01.065Z,7.68
2023-05-15T17:33:29.236Z,10.18
2023-05-15T17:35:57.237Z,11.57
2023-05-15T17:38:26.858Z,9.93
2023-05-15T17:40:55.549Z,16.00
2023-05-15T17:43:24.344Z,14.13
2023-05-15T17:45:52.470Z,17.65
2023-05-15T17:48:20.688Z,7.53
2023-05-15T17:50:50.132Z,10.27
2023-05-15T17:53:18.207Z,8.32
2023-05-15T17:55:49.846Z,10.85
2023-05-15T17:58:17.915Z,9.80
2023-05-15T18:00:46.763Z,11.85
2023-05-15T18:03:15.008Z,10.30
2023-05-15T18:05:47.390Z,10.05
2023-05-15T18:08:15.478Z,10.50
2023-05-15T18:10:43.565Z,13.13
2023-05-15T18:13:13.087Z,13.10
2023-05-15T18:15:41.295Z,9.73
2023-05-15T18:18:09.417Z,10.55
2023-05-15T18:20:38.692Z,15.02
2023-05-15T18:23:06.785Z,13.70
2023-05-15T18:25:36.968Z,13.80
2023-05-15T18:28:05.213Z,11.02
2023-05-15T18:30:35.084Z,13.80
2023-05-15T18:33:03.464Z,17.48
2023-05-15T18:35:31.836Z,12.65
2023-05-15T18:37:59.951Z,15.10
2023-05-15T18:40:28.023Z,14.68
2023-05-15T18:42:56.808Z,19.58
2023-05-15T18:45:25.115Z,26.30
2023-05-15T18:47:55.152Z,12.10
2023-05-15T18:50:24.985Z,12.82
2023-05-15T18:52:53.465Z,14.32
2023-05-15T18:55:22.104Z,18.42
2023-05-15T18:57:50.203Z,13.77
2023-05-15T19:00:26.738Z,12.15
2023-05-15T19:03:06.495Z,14.48
2023-05-15T19:05:34.796Z,13.25
2023-05-15T19:08:03.190Z,11.65
2023-05-15T19:10:31.325Z,16.08
2023-05-15T19:12:59.456Z,12.52
2023-05-15T19:15:27.733Z,12.55
2023-05-15T19:17:55.888Z,11.60
2023-05-15T19:20:25.746Z,13.05
2023-05-15T19:22:53.978Z,9.85
2023-05-15T19:25:22.238Z,13.45
2023-05-15T19:27:50.255Z,17.05
2023-05-15T19:30:18.534Z,9.93
2023-05-15T19:32:46.621Z,16.88
2023-05-15T19:35:14.793Z,15.02
2023-05-15T19:37:44.267Z,15.90
2023-05-15T19:40:13.050Z,10.73
2023-05-15T19:42:41.112Z,12.05
2023-05-15T19:45:09.936Z,12.60
2023-05-15T19:47:38.309Z,10.80
2023-05-15T19:50:07.748Z,13.95
2023-05-15T19:52:35.825Z,12.70
2023-05-15T19:55:05.888Z,13.02
2023-05-15T19:57:33.934Z,13.15
2023-05-15T20:00:01.992Z,12.30
2023-05-15T20:02:30.131Z,13.88
2023-05-15T20:04:58.596Z,12.95
2023-05-15T20:07:26.654Z,12.02
2023-05-15T20:09:54.831Z,15.88
2023-05-15T20:12:24.254Z,15.43
2023-05-15T20:14:52.322Z,14.63
2023-05-15T20:17:20.602Z,10.82
2023-05-15T20:19:50.560Z,11.43
2023-05-15T20:22:18.763Z,11.18
2023-05-15T20:24:48.248Z,11.63
2023-05-15T20:27:16.375Z,10.85
2023-05-15T20:29:45.819Z,12.13
2023-05-15T20:32:13.942Z,12.13
2023-05-15T20:34:47.653Z,15.23
2023-05-15T20:37:16.331Z,11.75
2023-05-15T20:39:44.376Z,11.93
2023-05-15T20:42:12.414Z,10.23
2023-05-15T20:44:40.511Z,10.80
2023-05-15T20:47:10.029Z,14.30
2023-05-15T20:49:38.101Z,9.70
2023-05-15T20:52:06.594Z,10.48
2023-05-15T20:54:34.766Z,10.18
2023-05-15T20:57:02.978Z,10.32
2023-05-15T20:59:31.073Z,10.90
2023-05-15T21:01:59.104Z,13.98
2023-05-15T21:04:28.511Z,12.98
2023-05-15T21:06:56.565Z,12.77
2023-05-15T21:09:24.624Z,11.35
2023-05-15T21:11:52.679Z,10.77
2023-05-15T21:14:20.776Z,13.48
2023-05-15T21:16:48.918Z,11.40
2023-05-15T21:19:17.071Z,13.30
2023-05-15T21:21:46.546Z,11.25
2023-05-15T21:24:14.585Z,11.82
2023-05-15T21:26:42.637Z,10.23
2023-05-15T21:29:10.725Z,10.63
2023-05-15T21:31:38.860Z,16.40
2023-05-15T21:34:06.943Z,11.68
2023-05-15T21:36:35.771Z,14.57
2023-05-15T21:39:06.608Z,13.30
2023-05-15T21:41:34.723Z,11.02
2023-05-15T21:44:02.767Z,12.13
2023-05-15T21:46:30.827Z,12.43
2023-05-15T21:48:59.530Z,13.00
2023-05-15T21:51:27.985Z,11.35
2023-05-15T21:53:56.060Z,12.13
2023-05-15T21:56:26.005Z,13.52
2023-05-15T21:58:54.155Z,12.27
2023-05-15T22:01:22.530Z,13.15
2023-05-15T22:03:50.790Z,10.98
2023-05-15T22:06:18.920Z,12.73
2023-05-15T22:08:46.951Z,22.05
2023-05-15T22:11:15.451Z,18.92
2023-05-15T22:13:45.160Z,18.30
2023-05-15T22:16:13.232Z,13.45
2023-05-15T22:18:41.991Z,14.75
2023-05-15T22:21:10.219Z,14.30
2023-05-15T22:23:38.235Z,12.75
2023-05-15T22:26:06.324Z,13.13
2023-05-15T22:28:34.351Z,17.40
2023-05-15T22:31:04.299Z,16.85
2023-05-15T22:33:32.345Z,20.83
2023-05-15T22:36:00.453Z,18.23
2023-05-15T22:38:28.639Z,21.92
2023-05-15T22:40:56.843Z,18.60
2023-05-15T22:43:24.946Z,21.50
2023-05-15T22:45:53.350Z,21.55
2023-05-15T22:48:23.131Z,15.73
2023-05-15T22:50:52.298Z,15.57
2023-05-15T22:53:20.350Z,21.08
2023-05-15T22:55:48.408Z,16.75
2023-05-15T22:58:17.118Z,16.70
2023-05-15T23:00:45.128Z,20.17
2023-05-15T23:03:13.261Z,20.80
2023-05-15T23:05:42.720Z,24.98
2023-05-15T23:08:10.796Z,21.60
2023-05-15T23:10:38.856Z,22.17
2023-05-15T23:13:06.991Z,24.10
2023-05-15T23:15:35.040Z,23.83
2023-05-15T23:18:03.169Z,21.25
2023-05-15T23:20:31.259Z,21.00
2023-05-15T23:23:00.780Z,20.67
2023-05-15T23:25:28.964Z,22.33
2023-05-15T23:27:57.021Z,25.48
2023-05-15T23:30:25.441Z,25.75
2023-05-15T23:32:55.291Z,24.98
2023-05-15T23:35:23.820Z,22.80
2023-05-15T23:37:51.923Z,26.70
2023-05-15T23:40:21.473Z,29.65
2023-05-15T23:42:49.491Z,23.73
2023-05-15T23:45:17.712Z,31.95
2023-05-15T23:47:46.583Z,29.90
2023-05-15T23:50:14.716Z,29.52
2023-05-15T23:52:42.922Z,27.70
2023-05-15T23:55:12.031Z,31.50
2023-05-15T23:57:41.506Z,29.52
